createdAt,value
2018-12-13T00:02:18.022Z,0.70
2018-12-13T00:04:45.479Z,0.70
2018-12-13T00:07:12.937Z,0.70
2018-12-13T00:09:40.433Z,0.90
2018-12-13T00:12:07.934Z,1.00
2018-12-13T00:14:35.406Z,1.00
2018-12-13T00:17:02.903Z,0.90
2018-12-13T00:19:30.372Z,0.80
2018-12-13T00:21:57.845Z,0.70
2018-12-13T00:24:25.302Z,0.80
2018-12-13T00:26:52.767Z,0.70
2018-12-13T00:29:20.226Z,0.80
2018-12-13T00:31:47.681Z,1.00
2018-12-13T00:34:15.138Z,1.00
2018-12-13T00:36:42.601Z,1.00
2018-12-13T00:39:10.041Z,0.90
2018-12-13T00:41:37.534Z,0.80
2018-12-13T00:44:04.980Z,0.90
2018-12-13T00:46:32.455Z,1.20
2018-12-13T00:48:59.929Z,1.20
2018-12-13T00:51:27.393Z,1.30
2018-12-13T00:53:54.882Z,1.30
2018-12-13T00:56:22.337Z,1.10
2018-12-13T00:58:49.828Z,1.10
2018-12-13T01:01:17.321Z,1.10
2018-12-13T01:03:44.777Z,1.10
2018-12-13T01:06:12.235Z,1.10
2018-12-13T01:08:39.676Z,1.00
2018-12-13T01:11:07.132Z,1.10
2018-12-13T01:13:34.990Z,1.20
2018-12-13T01:16:02.485Z,1.10
2018-12-13T01:18:29.972Z,1.10
2018-12-13T01:20:57.433Z,1.10
2018-12-13T01:23:24.925Z,1.20
2018-12-13T01:25:52.420Z,1.20
2018-12-13T01:28:19.875Z,1.20
2018-12-13T01:30:47.348Z,1.10
2018-12-13T01:33:14.793Z,1.00
2018-12-13T01:35:42.239Z,1.10
2018-12-13T01:38:09.693Z,1.10
2018-12-13T01:40:37.180Z,1.20
2018-12-13T01:43:04.650Z,1.20
2018-12-13T01:45:32.137Z,1.20
2018-12-13T01:47:59.602Z,1.20
2018-12-13T01:50:27.081Z,1.30
2018-12-13T01:52:54.548Z,1.20
2018-12-13T01:55:22.009Z,1.00
2018-12-13T01:57:49.473Z,1.10
2018-12-13T02:00:17.193Z,1.10
2018-12-13T02:02:44.656Z,1.10
2018-12-13T02:05:12.106Z,1.10
2018-12-13T02:07:39.567Z,1.00
2018-12-13T02:10:07.078Z,1.10
2018-12-13T02:12:34.524Z,1.10
2018-12-13T02:15:01.989Z,1.20
2018-12-13T02:17:29.473Z,1.00
2018-12-13T02:19:56.996Z,1.20
2018-12-13T02:22:24.500Z,1.20
2018-12-13T02:24:52.262Z,1.00
2018-12-13T02:27:19.751Z,1.00
2018-12-13T02:29:47.202Z,1.00
2018-12-13T02:32:14.649Z,1.10
2018-12-13T02:34:42.111Z,1.10
2018-12-13T02:37:09.604Z,1.20
2018-12-13T02:39:37.051Z,1.20
2018-12-13T02:42:04.527Z,1.10
2018-12-13T02:44:31.979Z,1.10
2018-12-13T02:46:59.609Z,1.00
2018-12-13T02:49:27.063Z,0.90
2018-12-13T02:51:54.538Z,0.90
2018-12-13T02:54:22.068Z,1.00
2018-12-13T02:56:49.524Z,0.90
2018-12-13T02:59:16.973Z,0.90
2018-12-13T03:01:44.491Z,0.70
2018-12-13T03:04:12.029Z,0.80
2018-12-13T03:06:39.546Z,0.90
2018-12-13T03:09:07.993Z,1.00
2018-12-13T03:11:35.461Z,0.80
2018-12-13T03:14:02.976Z,0.70
2018-12-13T03:16:30.427Z,0.70
2018-12-13T03:18:57.885Z,0.70
2018-12-13T03:21:25.357Z,0.80
2018-12-13T03:23:52.809Z,0.70
2018-12-13T03:26:20.303Z,0.60
2018-12-13T03:28:47.760Z,0.50
2018-12-13T03:31:15.224Z,0.70
2018-12-13T03:33:42.757Z,0.70
2018-12-13T03:36:10.209Z,0.60
2018-12-13T03:38:37.679Z,0.50
2018-12-13T03:41:05.232Z,0.50
2018-12-13T03:43:32.686Z,0.50
2018-12-13T03:46:00.179Z,0.50
2018-12-13T03:48:27.642Z,0.40
2018-12-13T03:50:55.088Z,0.40
2018-12-13T03:53:22.549Z,0.50
2018-12-13T03:55:50.145Z,0.40
2018-12-13T03:58:17.652Z,0.30
2018-12-13T04:00:45.096Z,0.20
2018-12-13T04:03:12.577Z,0.10
2018-12-13T04:05:40.013Z,0.10
2018-12-13T04:08:07.458Z,0.30
2018-12-13T04:10:34.901Z,0.20
2018-12-13T04:13:02.455Z,0.50
2018-12-13T04:15:30.239Z,0.30
2018-12-13T04:17:57.691Z,0.40
2018-12-13T04:20:25.132Z,0.50
2018-12-13T04:22:52.585Z,0.60
2018-12-13T04:25:20.027Z,0.60
2018-12-13T04:27:47.487Z,0.50
2018-12-13T04:30:14.926Z,0.50
2018-12-13T04:32:42.381Z,0.40
2018-12-13T04:35:09.915Z,0.60
2018-12-13T04:37:37.737Z,0.50
2018-12-13T04:40:05.161Z,0.60
2018-12-13T04:42:32.608Z,0.50
2018-12-13T04:45:00.041Z,0.30
2018-12-13T04:47:27.497Z,0.30
2018-12-13T04:49:54.953Z,0.40
2018-12-13T04:52:22.413Z,0.30
2018-12-13T04:54:49.855Z,0.30
2018-12-13T04:57:17.309Z,0.20
2018-12-13T04:59:44.764Z,0.30
2018-12-13T05:02:12.219Z,0.20
2018-12-13T05:04:39.647Z,0.10
2018-12-13T05:07:07.112Z,0.20
2018-12-13T05:09:34.584Z,0.20
2018-12-13T05:12:02.037Z,0.30
2018-12-13T05:14:29.474Z,0.40
2018-12-13T05:16:56.969Z,0.20
2018-12-13T05:19:24.426Z,0.20
2018-12-13T05:21:51.886Z,0.20
2018-12-13T05:24:19.333Z,0.20
2018-12-13T05:26:46.789Z,0.20
2018-12-13T05:29:14.241Z,0.20
2018-12-13T05:31:41.713Z,0.20
2018-12-13T05:34:09.173Z,0.10
2018-12-13T05:36:36.649Z,0.00
2018-12-13T05:39:06.482Z,0.00
2018-12-13T05:41:33.939Z,0.20
2018-12-13T05:44:01.389Z,0.30
2018-12-13T05:46:28.840Z,0.20
2018-12-13T05:48:56.288Z,0.20
2018-12-13T05:51:23.764Z,0.30
2018-12-13T05:53:51.214Z,0.10
2018-12-13T05:56:18.661Z,0.20
2018-12-13T05:58:46.166Z,0.00
2018-12-13T06:01:13.632Z,-0.10
2018-12-13T06:03:41.128Z,0.00
2018-12-13T06:06:08.566Z,0.00
2018-12-13T06:08:36.045Z,0.20
2018-12-13T06:11:03.535Z,0.10
2018-12-13T06:13:30.993Z,0.00
2018-12-13T06:15:58.432Z,0.10
2018-12-13T06:18:25.906Z,-0.10
2018-12-13T06:20:53.336Z,0.00
2018-12-13T06:23:20.801Z,-0.20
2018-12-13T06:25:48.273Z,0.00
2018-12-13T06:28:15.737Z,0.10
2018-12-13T06:30:43.189Z,-0.10
2018-12-13T06:33:10.660Z,-0.10
2018-12-13T06:35:38.135Z,-0.10
2018-12-13T06:38:05.618Z,0.00
2018-12-13T06:40:33.079Z,-0.10
2018-12-13T06:43:00.781Z,0.00
2018-12-13T06:45:28.253Z,0.00
2018-12-13T06:47:55.706Z,0.20
2018-12-13T06:50:23.177Z,0.10
2018-12-13T06:52:50.629Z,0.10
2018-12-13T06:55:18.187Z,0.00
2018-12-13T06:57:45.622Z,-0.10
2018-12-13T07:00:13.083Z,-0.10
2018-12-13T07:02:40.581Z,0.00
2018-12-13T07:05:08.329Z,-0.10
2018-12-13T07:07:35.777Z,-0.10
2018-12-13T07:10:03.890Z,-0.20
2018-12-13T07:12:31.341Z,-0.10
2018-12-13T07:14:58.838Z,-0.20
2018-12-13T07:17:26.290Z,0.00
2018-12-13T07:19:53.748Z,0.10
2018-12-13T07:22:21.201Z,-0.10
2018-12-13T07:24:48.982Z,-0.20
2018-12-13T07:27:16.458Z,-0.10
2018-12-13T07:29:43.974Z,-0.20
2018-12-13T07:32:11.421Z,-0.20
2018-12-13T07:34:38.876Z,-0.30
2018-12-13T07:37:06.381Z,-0.30
2018-12-13T07:39:33.848Z,-0.30
2018-12-13T07:42:01.324Z,-0.40
2018-12-13T07:44:28.789Z,-0.40
2018-12-13T07:46:56.240Z,-0.30
2018-12-13T07:49:23.709Z,-0.30
2018-12-13T07:51:51.159Z,-0.30
2018-12-13T07:54:19.518Z,-0.20
2018-12-13T07:56:46.982Z,-0.10
2018-12-13T07:59:14.444Z,-0.30
2018-12-13T08:01:42.387Z,-0.30
2018-12-13T08:04:09.893Z,-0.30
2018-12-13T08:06:37.421Z,-0.40
2018-12-13T08:09:06.353Z,-0.30
2018-12-13T08:11:33.802Z,-0.30
2018-12-13T08:14:01.267Z,-0.30
2018-12-13T08:16:28.770Z,-0.40
2018-12-13T08:18:56.220Z,-0.30
2018-12-13T08:21:23.720Z,-0.40
2018-12-13T08:23:51.171Z,-0.30
2018-12-13T08:26:18.914Z,-0.20
2018-12-13T08:28:46.374Z,0.00
2018-12-13T08:31:13.853Z,0.10
2018-12-13T08:33:41.693Z,0.10
2018-12-13T08:36:09.461Z,0.00
2018-12-13T08:38:36.921Z,0.00
2018-12-13T08:41:04.429Z,0.00
2018-12-13T08:43:31.881Z,0.00
2018-12-13T08:45:59.393Z,0.10
2018-12-13T08:48:27.273Z,0.00
2018-12-13T08:50:54.772Z,0.10
2018-12-13T08:53:22.229Z,0.00
2018-12-13T08:55:49.701Z,0.10
2018-12-13T08:58:17.198Z,0.10
2018-12-13T09:00:44.654Z,0.20
2018-12-13T09:03:12.125Z,0.20
2018-12-13T09:05:39.590Z,0.10
2018-12-13T09:08:07.036Z,0.10
2018-12-13T09:10:34.501Z,0.10
2018-12-13T09:13:01.964Z,0.20
2018-12-13T09:15:29.414Z,0.30
2018-12-13T09:17:56.918Z,0.30
2018-12-13T09:20:24.373Z,0.30
2018-12-13T09:22:51.828Z,0.20
2018-12-13T09:25:19.332Z,0.30
2018-12-13T09:27:46.838Z,0.40
2018-12-13T09:30:14.380Z,0.40
2018-12-13T09:32:41.846Z,0.60
2018-12-13T09:35:09.313Z,0.60
2018-12-13T09:37:36.753Z,0.50
2018-12-13T09:40:04.872Z,0.50
2018-12-13T09:42:32.324Z,0.60
2018-12-13T09:44:59.767Z,0.50
2018-12-13T09:47:27.262Z,0.50
2018-12-13T09:49:54.748Z,0.60
2018-12-13T09:52:22.234Z,0.60
2018-12-13T09:54:49.713Z,0.60
2018-12-13T09:57:17.168Z,0.60
2018-12-13T09:59:44.625Z,0.70
2018-12-13T10:02:12.082Z,0.70
2018-12-13T10:04:39.535Z,0.80
2018-12-13T10:07:06.997Z,0.90
2018-12-13T10:09:34.971Z,0.80
2018-12-13T10:12:02.465Z,0.90
2018-12-13T10:14:29.918Z,0.90
2018-12-13T10:16:57.372Z,0.90
2018-12-13T10:19:24.923Z,0.90
2018-12-13T10:21:52.429Z,0.90
2018-12-13T10:24:19.904Z,1.00
2018-12-13T10:26:47.373Z,1.00
2018-12-13T10:29:15.189Z,1.00
2018-12-13T10:31:43.033Z,1.10
2018-12-13T10:34:10.505Z,1.00
2018-12-13T10:36:38.047Z,1.10
2018-12-13T10:39:07.189Z,1.00
2018-12-13T10:41:34.685Z,1.10
2018-12-13T10:44:02.160Z,1.10
2018-12-13T10:46:29.656Z,1.10
2018-12-13T10:48:57.104Z,1.10
2018-12-13T10:51:24.609Z,1.10
2018-12-13T10:53:52.108Z,1.10
2018-12-13T10:56:19.574Z,1.10
2018-12-13T10:58:47.042Z,1.10
2018-12-13T11:01:20.146Z,1.10
2018-12-13T11:03:47.697Z,1.10
2018-12-13T11:06:15.188Z,1.10
2018-12-13T11:08:42.701Z,1.20
2018-12-13T11:11:10.226Z,1.20
2018-12-13T11:13:37.690Z,1.20
2018-12-13T11:16:05.140Z,1.20
2018-12-13T11:18:32.577Z,1.20
2018-12-13T11:21:00.394Z,1.20
2018-12-13T11:23:27.855Z,1.20
2018-12-13T11:25:55.364Z,1.20
2018-12-13T11:28:34.697Z,1.20
2018-12-13T11:31:03.030Z,1.20
2018-12-13T11:33:30.586Z,1.20
2018-12-13T11:35:58.023Z,1.20
2018-12-13T11:38:25.473Z,1.20
2018-12-13T11:40:52.928Z,1.20
2018-12-13T11:43:20.400Z,1.20
2018-12-13T11:45:47.894Z,1.20
2018-12-13T11:48:15.393Z,1.20
2018-12-13T11:50:42.881Z,1.30
2018-12-13T11:53:10.372Z,1.30
2018-12-13T11:55:37.899Z,1.40
2018-12-13T11:58:05.427Z,1.40
2018-12-13T12:00:32.869Z,1.40
2018-12-13T12:03:00.338Z,1.50
2018-12-13T12:05:27.799Z,1.50
2018-12-13T12:07:55.293Z,1.50
2018-12-13T12:10:22.992Z,1.50
2018-12-13T12:12:50.448Z,1.50
2018-12-13T12:15:17.970Z,1.60
2018-12-13T12:17:45.420Z,1.60
2018-12-13T12:20:12.912Z,1.60
2018-12-13T12:22:40.379Z,1.70
2018-12-13T12:25:07.906Z,1.80
2018-12-13T12:27:35.445Z,1.90
2018-12-13T12:30:03.660Z,1.90
2018-12-13T12:32:31.124Z,1.90
2018-12-13T12:34:58.570Z,1.90
2018-12-13T12:37:26.046Z,2.00
2018-12-13T12:39:53.495Z,1.90
2018-12-13T12:42:20.958Z,1.90
2018-12-13T12:44:48.432Z,1.90
2018-12-13T12:47:16.298Z,1.90
2018-12-13T12:49:43.725Z,1.80
2018-12-13T12:52:11.197Z,1.70
2018-12-13T12:54:38.685Z,1.70
2018-12-13T12:57:06.143Z,1.70
2018-12-13T12:59:34.029Z,1.70
2018-12-13T13:02:01.512Z,1.80
2018-12-13T13:04:29.365Z,1.70
2018-12-13T13:06:56.847Z,1.70
2018-12-13T13:09:25.134Z,1.80
2018-12-13T13:11:52.973Z,1.80
2018-12-13T13:14:20.430Z,1.80
2018-12-13T13:16:48.302Z,1.80
2018-12-13T13:19:15.730Z,1.80
2018-12-13T13:21:43.192Z,1.80
2018-12-13T13:24:10.660Z,1.70
2018-12-13T13:26:38.171Z,1.70
2018-12-13T13:29:05.661Z,1.70
2018-12-13T13:31:33.157Z,1.80
2018-12-13T13:34:00.652Z,1.70
2018-12-13T13:36:28.101Z,1.80
2018-12-13T13:38:55.551Z,1.70
2018-12-13T13:41:23.011Z,1.80
2018-12-13T13:43:50.469Z,1.70
2018-12-13T13:46:17.961Z,1.80
2018-12-13T13:48:45.416Z,1.70
2018-12-13T13:51:12.945Z,1.70
2018-12-13T13:53:40.398Z,1.70
2018-12-13T13:56:07.874Z,1.70
2018-12-13T13:58:35.341Z,1.80
2018-12-13T14:01:02.810Z,1.80
2018-12-13T14:03:30.285Z,1.80
2018-12-13T14:05:57.735Z,1.70
2018-12-13T14:08:25.235Z,1.70
2018-12-13T14:10:52.721Z,1.70
2018-12-13T14:13:20.189Z,1.70
2018-12-13T14:15:47.633Z,1.70
2018-12-13T14:18:15.087Z,1.80
2018-12-13T14:20:42.560Z,1.70
2018-12-13T14:23:10.054Z,1.70
2018-12-13T14:25:37.520Z,1.60
2018-12-13T14:28:05.008Z,1.60
2018-12-13T14:30:32.455Z,1.70
2018-12-13T14:32:59.913Z,1.70
2018-12-13T14:35:27.366Z,1.70
2018-12-13T14:37:54.836Z,1.60
2018-12-13T14:40:22.294Z,1.60
2018-12-13T14:42:49.863Z,1.70
2018-12-13T14:45:17.408Z,1.60
2018-12-13T14:47:45.008Z,1.60
2018-12-13T14:50:12.460Z,1.60
2018-12-13T14:52:39.916Z,1.60
2018-12-13T14:55:07.457Z,1.60
2018-12-13T14:57:34.900Z,1.60
2018-12-13T15:00:02.438Z,1.60
2018-12-13T15:02:29.894Z,1.60
2018-12-13T15:04:57.578Z,1.60
2018-12-13T15:07:25.048Z,1.60
2018-12-13T15:09:52.573Z,1.50
2018-12-13T15:12:20.106Z,1.60
2018-12-13T15:14:47.561Z,1.60
2018-12-13T15:17:15.010Z,1.60
2018-12-13T15:19:42.470Z,1.60
2018-12-13T15:22:09.919Z,1.50
2018-12-13T15:24:37.384Z,1.60
2018-12-13T15:27:04.829Z,1.50
2018-12-13T15:29:32.609Z,1.60
2018-12-13T15:32:00.090Z,1.60
2018-12-13T15:34:27.536Z,1.50
2018-12-13T15:36:55.210Z,1.60
2018-12-13T15:39:22.689Z,1.50
2018-12-13T15:41:50.139Z,1.40
2018-12-13T15:44:17.628Z,1.40
2018-12-13T15:46:45.135Z,1.50
2018-12-13T15:49:12.598Z,1.40
2018-12-13T15:51:40.069Z,1.40
2018-12-13T15:54:07.585Z,1.40
2018-12-13T15:56:35.041Z,1.40
2018-12-13T15:59:02.514Z,1.40
2018-12-13T16:01:30.040Z,1.40
2018-12-13T16:03:57.542Z,1.40
2018-12-13T16:06:25.011Z,1.40
2018-12-13T16:08:52.820Z,1.30
2018-12-13T16:11:20.272Z,1.40
2018-12-13T16:13:47.884Z,1.30
2018-12-13T16:16:15.362Z,1.30
2018-12-13T16:18:42.811Z,1.30
2018-12-13T16:21:10.289Z,1.50
2018-12-13T16:23:37.784Z,1.40
2018-12-13T16:26:05.264Z,1.40
2018-12-13T16:28:32.793Z,1.40
2018-12-13T16:31:00.264Z,1.30
2018-12-13T16:33:27.738Z,1.30
2018-12-13T16:35:55.208Z,1.30
2018-12-13T16:38:22.701Z,1.30
2018-12-13T16:40:50.255Z,1.30
2018-12-13T16:43:17.741Z,1.20
2018-12-13T16:45:45.209Z,1.20
2018-12-13T16:48:12.718Z,1.20
2018-12-13T16:50:40.159Z,1.40
2018-12-13T16:53:07.615Z,1.50
2018-12-13T16:55:35.132Z,1.30
2018-12-13T16:58:02.818Z,1.30
2018-12-13T17:00:30.264Z,1.20
2018-12-13T17:02:57.721Z,1.20
2018-12-13T17:05:25.164Z,1.40
2018-12-13T17:07:52.649Z,1.30
2018-12-13T17:10:20.155Z,1.30
2018-12-13T17:12:47.621Z,1.20
2018-12-13T17:15:15.073Z,1.20
2018-12-13T17:17:42.509Z,1.20
2018-12-13T17:20:09.967Z,1.20
2018-12-13T17:22:37.417Z,1.20
2018-12-13T17:25:04.927Z,1.20
2018-12-13T17:27:32.377Z,1.20
2018-12-13T17:29:59.841Z,1.30
2018-12-13T17:32:27.292Z,1.30
2018-12-13T17:34:54.833Z,1.30
2018-12-13T17:37:22.306Z,1.20
2018-12-13T17:39:49.829Z,1.20
2018-12-13T17:42:17.277Z,1.30
2018-12-13T17:44:44.725Z,1.30
2018-12-13T17:47:12.205Z,1.30
2018-12-13T17:49:39.660Z,1.40
2018-12-13T17:52:07.113Z,1.40
2018-12-13T17:54:34.561Z,1.30
2018-12-13T17:57:02.010Z,1.30
2018-12-13T17:59:29.532Z,1.40
2018-12-13T18:01:57.005Z,1.30
2018-12-13T18:04:24.461Z,1.30
2018-12-13T18:06:51.911Z,1.30
2018-12-13T18:09:19.607Z,1.30
2018-12-13T18:11:47.055Z,1.30
2018-12-13T18:14:14.519Z,1.30
2018-12-13T18:16:43.553Z,1.30
2018-12-13T18:19:11.270Z,1.20
2018-12-13T18:21:38.762Z,1.30
2018-12-13T18:24:06.353Z,1.30
2018-12-13T18:26:33.811Z,1.40
2018-12-13T18:29:01.301Z,1.30
2018-12-13T18:31:28.770Z,1.30
2018-12-13T18:33:56.237Z,1.30
2018-12-13T18:36:23.705Z,1.30
2018-12-13T18:38:51.192Z,1.30
2018-12-13T18:41:18.664Z,1.30
2018-12-13T18:43:46.408Z,1.40
2018-12-13T18:46:13.841Z,1.30
2018-12-13T18:48:41.321Z,1.30
2018-12-13T18:51:08.780Z,1.30
2018-12-13T18:53:36.296Z,1.20
2018-12-13T18:56:03.815Z,1.20
2018-12-13T18:58:31.264Z,1.30
2018-12-13T19:00:58.756Z,1.20
2018-12-13T19:03:26.216Z,1.20
2018-12-13T19:05:53.724Z,1.10
2018-12-13T19:08:21.505Z,1.20
2018-12-13T19:10:49.000Z,1.20
2018-12-13T19:13:17.293Z,1.20
2018-12-13T19:15:44.746Z,1.20
2018-12-13T19:18:12.228Z,1.20
2018-12-13T19:20:39.716Z,1.20
2018-12-13T19:23:07.216Z,1.20
2018-12-13T19:25:34.722Z,1.20
2018-12-13T19:28:02.239Z,1.20
2018-12-13T19:30:29.722Z,1.20
2018-12-13T19:32:57.243Z,1.20
2018-12-13T19:35:24.767Z,1.20
2018-12-13T19:37:52.213Z,1.20
2018-12-13T19:40:19.685Z,1.20
2018-12-13T19:42:47.148Z,1.20
2018-12-13T19:45:14.615Z,1.20
2018-12-13T19:47:42.116Z,1.20
2018-12-13T19:50:10.051Z,1.30
2018-12-13T19:52:37.545Z,1.20
2018-12-13T19:55:06.878Z,1.30
2018-12-13T19:57:34.396Z,1.30
2018-12-13T20:00:01.889Z,1.30
2018-12-13T20:02:29.352Z,1.30
2018-12-13T20:04:56.837Z,1.20
2018-12-13T20:07:24.353Z,1.20
2018-12-13T20:09:51.850Z,1.20
2018-12-13T20:12:19.475Z,1.20
2018-12-13T20:14:46.948Z,1.30
2018-12-13T20:17:14.414Z,1.30
2018-12-13T20:19:41.906Z,1.30
2018-12-13T20:22:09.419Z,1.40
2018-12-13T20:24:36.936Z,1.20
2018-12-13T20:27:04.411Z,1.20
2018-12-13T20:29:31.901Z,1.30
2018-12-13T20:31:59.605Z,1.30
2018-12-13T20:34:27.063Z,1.30
2018-12-13T20:36:54.563Z,1.20
2018-12-13T20:39:22.024Z,1.20
2018-12-13T20:41:49.500Z,1.30
2018-12-13T20:44:16.949Z,1.20
2018-12-13T20:46:44.649Z,1.30
2018-12-13T20:49:12.113Z,1.20
2018-12-13T20:51:39.569Z,1.30
2018-12-13T20:54:07.096Z,1.30
2018-12-13T20:56:34.585Z,1.20
2018-12-13T20:59:02.040Z,1.40
2018-12-13T21:01:29.495Z,1.20
2018-12-13T21:03:56.953Z,1.30
2018-12-13T21:06:24.416Z,1.30
2018-12-13T21:08:51.881Z,1.30
2018-12-13T21:11:19.366Z,1.30
2018-12-13T21:13:46.823Z,1.20
2018-12-13T21:16:14.271Z,1.30
2018-12-13T21:18:41.804Z,1.20
2018-12-13T21:21:09.255Z,1.20
2018-12-13T21:23:36.705Z,1.20
2018-12-13T21:26:04.189Z,1.20
2018-12-13T21:28:31.627Z,1.20
2018-12-13T21:30:59.093Z,1.20
2018-12-13T21:33:26.560Z,1.20
2018-12-13T21:35:54.018Z,1.20
2018-12-13T21:38:21.894Z,1.30
2018-12-13T21:40:49.377Z,1.20
2018-12-13T21:43:16.896Z,1.30
2018-12-13T21:45:44.334Z,1.20
2018-12-13T21:48:11.816Z,1.30
2018-12-13T21:50:39.357Z,1.40
2018-12-13T21:53:06.907Z,1.30
2018-12-13T21:55:34.362Z,1.30
2018-12-13T21:58:01.828Z,1.40
2018-12-13T22:00:29.277Z,1.30
2018-12-13T22:02:56.778Z,1.40
2018-12-13T22:05:24.292Z,1.40
2018-12-13T22:07:51.742Z,1.30
2018-12-13T22:10:19.195Z,1.30
2018-12-13T22:12:46.687Z,1.20
2018-12-13T22:15:14.565Z,1.20
2018-12-13T22:17:42.010Z,1.20
2018-12-13T22:20:09.488Z,1.20
2018-12-13T22:22:37.211Z,1.20
2018-12-13T22:25:06.076Z,1.20
2018-12-13T22:27:33.570Z,1.10
2018-12-13T22:30:01.024Z,1.00
2018-12-13T22:32:28.510Z,1.10
2018-12-13T22:34:55.966Z,1.20
2018-12-13T22:37:23.916Z,1.10
2018-12-13T22:39:51.359Z,1.10
2018-12-13T22:42:18.814Z,1.00
2018-12-13T22:44:46.265Z,1.00
2018-12-13T22:47:13.725Z,1.10
2018-12-13T22:49:41.180Z,1.00
2018-12-13T22:52:08.671Z,1.00
2018-12-13T22:54:36.212Z,0.90
2018-12-13T22:57:03.701Z,0.90
2018-12-13T22:59:31.165Z,1.00
2018-12-13T23:01:58.744Z,0.90
2018-12-13T23:04:26.282Z,0.90
2018-12-13T23:06:53.756Z,0.90
2018-12-13T23:09:21.352Z,0.80
2018-12-13T23:11:48.871Z,0.90
2018-12-13T23:14:16.406Z,0.80
2018-12-13T23:16:43.892Z,0.90
2018-12-13T23:19:11.462Z,0.80
2018-12-13T23:21:38.903Z,0.80
2018-12-13T23:24:06.376Z,0.80
2018-12-13T23:26:33.820Z,0.80
2018-12-13T23:29:01.313Z,0.90
2018-12-13T23:31:28.811Z,0.80
2018-12-13T23:33:56.288Z,0.70
2018-12-13T23:36:23.772Z,0.70
2018-12-13T23:38:51.236Z,0.70
2018-12-13T23:41:18.704Z,0.80
2018-12-13T23:43:46.156Z,0.80
2018-12-13T23:46:13.897Z,0.80
2018-12-13T23:48:41.402Z,0.70
2018-12-13T23:51:09.322Z,0.80
2018-12-13T23:53:36.913Z,0.70
2018-12-13T23:56:04.405Z,0.70
2018-12-13T23:58:32.123Z,0.70
